sensor_id;sensor_type;location;lat;lon;timestamp;temperature;humidity
18611;DHT22;9435;52.122;5.502;2022-12-10T00:01:34;-1.40;99.90
18611;DHT22;9435;52.122;5.502;2022-12-10T00:04:02;-1.50;99.90
18611;DHT22;9435;52.122;5.502;2022-12-10T00:06:31;-1.50;99.90
18611;DHT22;9435;52.122;5.502;2022-12-10T00:08:59;-1.50;99.90
18611;DHT22;9435;52.122;5.502;2022-12-10T00:11:27;-1.50;99.90
18611;DHT22;9435;52.122;5.502;2022-12-10T00:13:54;-1.50;99.90
18611;DHT22;9435;52.122;5.502;2022-12-10T00:16:23;-1.50;99.90
18611;DHT22;9435;52.122;5.502;2022-12-10T00:18:52;-1.50;99.90
18611;DHT22;9435;52.122;5.502;2022-12-10T00:21:21;-1.50;99.90
18611;DHT22;9435;52.122;5.502;2022-12-10T00:23:49;-1.50;99.90
18611;DHT22;9435;52.122;5.502;2022-12-10T00:26:18;-1.50;99.90
18611;DHT22;9435;52.122;5.502;2022-12-10T00:28:46;-1.50;99.90
18611;DHT22;9435;52.122;5.502;2022-12-10T00:31:17;-1.50;99.90
18611;DHT22;9435;52.122;5.502;2022-12-10T00:33:46;-1.50;99.90
18611;DHT22;9435;52.122;5.502;2022-12-10T00:36:15;-1.50;99.90
18611;DHT22;9435;52.122;5.502;2022-12-10T00:38:45;-1.50;99.90
18611;DHT22;9435;52.122;5.502;2022-12-10T00:41:13;-1.50;99.90
18611;DHT22;9435;52.122;5.502;2022-12-10T00:43:41;-1.50;99.90
18611;DHT22;9435;52.122;5.502;2022-12-10T00:46:09;-1.50;99.90
18611;DHT22;9435;52.122;5.502;2022-12-10T00:48:36;-1.50;99.90
18611;DHT22;9435;52.122;5.502;2022-12-10T00:51:06;-1.50;99.90
18611;DHT22;9435;52.122;5.502;2022-12-10T00:53:35;-1.50;99.90
18611;DHT22;9435;52.122;5.502;2022-12-10T00:56:04;-1.50;99.90
18611;DHT22;9435;52.122;5.502;2022-12-10T00:58:33;-1.50;99.90
18611;DHT22;9435;52.122;5.502;2022-12-10T01:01:08;-1.40;99.90
18611;DHT22;9435;52.122;5.502;2022-12-10T01:03:36;-1.50;99.90
18611;DHT22;9435;52.122;5.502;2022-12-10T01:06:14;-1.40;99.90
18611;DHT22;9435;52.122;5.502;2022-12-10T01:08:42;-1.40;99.90
18611;DHT22;9435;52.122;5.502;2022-12-10T01:11:09;-1.40;99.90
18611;DHT22;9435;52.122;5.502;2022-12-10T01:13:37;-1.40;99.90
18611;DHT22;9435;52.122;5.502;2022-12-10T01:16:06;-1.40;99.90
18611;DHT22;9435;52.122;5.502;2022-12-10T01:18:34;-1.40;99.90
18611;DHT22;9435;52.122;5.502;2022-12-10T01:21:02;-1.40;99.90
18611;DHT22;9435;52.122;5.502;2022-12-10T01:23:32;-1.40;99.90
18611;DHT22;9435;52.122;5.502;2022-12-10T01:26:01;-1.30;99.90
18611;DHT22;9435;52.122;5.502;2022-12-10T01:28:30;-1.30;99.90
18611;DHT22;9435;52.122;5.502;2022-12-10T01:31:00;-1.30;99.90
18611;DHT22;9435;52.122;5.502;2022-12-10T01:33:28;-1.20;99.90
18611;DHT22;9435;52.122;5.502;2022-12-10T01:35:55;-1.20;99.90
18611;DHT22;9435;52.122;5.502;2022-12-10T01:38:23;-1.20;99.90
18611;DHT22;9435;52.122;5.502;2022-12-10T01:40:51;-1.20;99.90
18611;DHT22;9435;52.122;5.502;2022-12-10T01:43:18;-1.10;99.90
18611;DHT22;9435;52.122;5.502;2022-12-10T01:45:45;-1.10;99.90
18611;DHT22;9435;52.122;5.502;2022-12-10T01:48:13;-1.10;99.90
18611;DHT22;9435;52.122;5.502;2022-12-10T01:50:40;-1.10;99.90
18611;DHT22;9435;52.122;5.502;2022-12-10T01:53:07;-1.00;99.90
18611;DHT22;9435;52.122;5.502;2022-12-10T01:55:42;-1.00;99.90
18611;DHT22;9435;52.122;5.502;2022-12-10T01:58:11;-1.00;99.90
18611;DHT22;9435;52.122;5.502;2022-12-10T02:00:55;-1.00;99.90
18611;DHT22;9435;52.122;5.502;2022-12-10T02:03:32;-1.00;99.90
18611;DHT22;9435;52.122;5.502;2022-12-10T02:06:06;-0.90;99.90
18611;DHT22;9435;52.122;5.502;2022-12-10T02:08:41;-0.90;99.90
18611;DHT22;9435;52.122;5.502;2022-12-10T02:11:27;-0.90;99.90
18611;DHT22;9435;52.122;5.502;2022-12-10T02:14:01;-0.90;99.90
18611;DHT22;9435;52.122;5.502;2022-12-10T02:16:32;-0.90;99.90
18611;DHT22;9435;52.122;5.502;2022-12-10T02:19:06;-0.90;99.90
18611;DHT22;9435;52.122;5.502;2022-12-10T02:21:38;-0.90;99.90
18611;DHT22;9435;52.122;5.502;2022-12-10T02:24:08;-0.90;99.90
18611;DHT22;9435;52.122;5.502;2022-12-10T02:26:42;-0.90;99.90
18611;DHT22;9435;52.122;5.502;2022-12-10T02:29:15;-0.90;99.90
18611;DHT22;9435;52.122;5.502;2022-12-10T02:31:45;-0.90;99.90
18611;DHT22;9435;52.122;5.502;2022-12-10T02:34:13;-0.80;99.90
18611;DHT22;9435;52.122;5.502;2022-12-10T02:36:43;-0.80;99.90
18611;DHT22;9435;52.122;5.502;2022-12-10T02:39:13;-0.80;99.90
18611;DHT22;9435;52.122;5.502;2022-12-10T02:41:45;-0.80;99.90
18611;DHT22;9435;52.122;5.502;2022-12-10T02:44:17;-0.90;99.90
18611;DHT22;9435;52.122;5.502;2022-12-10T02:46:48;-0.80;99.90
18611;DHT22;9435;52.122;5.502;2022-12-10T02:49:16;-0.80;99.90
18611;DHT22;9435;52.122;5.502;2022-12-10T02:51:44;-0.90;99.90
18611;DHT22;9435;52.122;5.502;2022-12-10T02:54:37;-0.80;99.90
18611;DHT22;9435;52.122;5.502;2022-12-10T02:57:11;-0.80;99.90
18611;DHT22;9435;52.122;5.502;2022-12-10T03:02:34;-0.80;99.90
18611;DHT22;9435;52.122;5.502;2022-12-10T03:05:05;-0.80;99.90
18611;DHT22;9435;52.122;5.502;2022-12-10T03:07:39;-0.80;99.90
18611;DHT22;9435;52.122;5.502;2022-12-10T03:10:14;-0.70;99.90
18611;DHT22;9435;52.122;5.502;2022-12-10T03:12:47;-0.80;99.90
18611;DHT22;9435;52.122;5.502;2022-12-10T03:15:18;-0.80;99.90
18611;DHT22;9435;52.122;5.502;2022-12-10T03:17:47;-0.70;99.90
18611;DHT22;9435;52.122;5.502;2022-12-10T03:20:16;-0.70;99.90
18611;DHT22;9435;52.122;5.502;2022-12-10T03:22:46;-0.70;99.90
18611;DHT22;9435;52.122;5.502;2022-12-10T03:25:17;-0.70;99.90
18611;DHT22;9435;52.122;5.502;2022-12-10T03:27:45;-0.70;99.90
18611;DHT22;9435;52.122;5.502;2022-12-10T03:30:17;-0.70;99.90
18611;DHT22;9435;52.122;5.502;2022-12-10T03:32:45;-0.60;99.90
18611;DHT22;9435;52.122;5.502;2022-12-10T03:35:13;-0.60;99.90
18611;DHT22;9435;52.122;5.502;2022-12-10T03:37:41;-0.60;99.90
18611;DHT22;9435;52.122;5.502;2022-12-10T03:40:11;-0.60;99.90
18611;DHT22;9435;52.122;5.502;2022-12-10T03:42:39;-0.60;99.90
18611;DHT22;9435;52.122;5.502;2022-12-10T03:45:07;-0.60;99.90
18611;DHT22;9435;52.122;5.502;2022-12-10T03:47:35;-0.60;99.90
18611;DHT22;9435;52.122;5.502;2022-12-10T03:50:03;-0.60;99.90
18611;DHT22;9435;52.122;5.502;2022-12-10T03:52:30;-0.60;99.90
18611;DHT22;9435;52.122;5.502;2022-12-10T03:54:57;-0.70;99.90
18611;DHT22;9435;52.122;5.502;2022-12-10T03:57:24;-0.60;99.90
18611;DHT22;9435;52.122;5.502;2022-12-10T03:59:52;-0.60;99.90
18611;DHT22;9435;52.122;5.502;2022-12-10T04:02:19;-0.60;99.90
18611;DHT22;9435;52.122;5.502;2022-12-10T04:04:47;-0.70;99.90
18611;DHT22;9435;52.122;5.502;2022-12-10T04:07:14;-0.70;99.90
18611;DHT22;9435;52.122;5.502;2022-12-10T04:09:41;-0.70;99.90
18611;DHT22;9435;52.122;5.502;2022-12-10T04:12:08;-0.70;99.90
18611;DHT22;9435;52.122;5.502;2022-12-10T04:14:35;-0.60;99.90
18611;DHT22;9435;52.122;5.502;2022-12-10T04:17:20;-0.60;99.90
18611;DHT22;9435;52.122;5.502;2022-12-10T04:19:48;-0.60;99.90
18611;DHT22;9435;52.122;5.502;2022-12-10T04:22:15;-0.60;99.90
18611;DHT22;9435;52.122;5.502;2022-12-10T04:25:00;-0.70;99.90
18611;DHT22;9435;52.122;5.502;2022-12-10T04:27:47;-0.70;99.90
18611;DHT22;9435;52.122;5.502;2022-12-10T04:30:14;-0.70;99.90
18611;DHT22;9435;52.122;5.502;2022-12-10T04:32:41;-0.70;99.90
18611;DHT22;9435;52.122;5.502;2022-12-10T04:35:10;-0.70;99.90
18611;DHT22;9435;52.122;5.502;2022-12-10T04:37:37;-0.70;99.90
18611;DHT22;9435;52.122;5.502;2022-12-10T04:40:05;-0.70;99.90
18611;DHT22;9435;52.122;5.502;2022-12-10T04:42:33;-0.70;99.90
18611;DHT22;9435;52.122;5.502;2022-12-10T04:45:00;-0.60;99.90
18611;DHT22;9435;52.122;5.502;2022-12-10T04:47:27;-0.70;99.90
18611;DHT22;9435;52.122;5.502;2022-12-10T04:49:54;-0.70;99.90
18611;DHT22;9435;52.122;5.502;2022-12-10T04:52:23;-0.70;99.90
18611;DHT22;9435;52.122;5.502;2022-12-10T04:54:50;-0.80;99.90
18611;DHT22;9435;52.122;5.502;2022-12-10T04:57:17;-0.80;99.90
18611;DHT22;9435;52.122;5.502;2022-12-10T04:59:44;-0.70;99.90
18611;DHT22;9435;52.122;5.502;2022-12-10T05:02:11;-0.70;99.90
18611;DHT22;9435;52.122;5.502;2022-12-10T05:04:38;-0.70;99.90
18611;DHT22;9435;52.122;5.502;2022-12-10T05:07:05;-0.70;99.90
18611;DHT22;9435;52.122;5.502;2022-12-10T05:09:34;-0.70;99.90
18611;DHT22;9435;52.122;5.502;2022-12-10T05:12:01;-0.70;99.90
18611;DHT22;9435;52.122;5.502;2022-12-10T05:14:28;-0.80;99.90
18611;DHT22;9435;52.122;5.502;2022-12-10T05:16:55;-0.90;99.90
18611;DHT22;9435;52.122;5.502;2022-12-10T05:19:22;-0.90;99.90
18611;DHT22;9435;52.122;5.502;2022-12-10T05:21:49;-0.90;99.90
18611;DHT22;9435;52.122;5.502;2022-12-10T05:24:40;-0.80;99.90
18611;DHT22;9435;52.122;5.502;2022-12-10T05:27:07;-0.80;99.90
18611;DHT22;9435;52.122;5.502;2022-12-10T05:29:35;-0.80;99.90
18611;DHT22;9435;52.122;5.502;2022-12-10T05:32:03;-0.80;99.90
18611;DHT22;9435;52.122;5.502;2022-12-10T05:34:30;-0.80;99.90
18611;DHT22;9435;52.122;5.502;2022-12-10T05:36:57;-0.80;99.90
18611;DHT22;9435;52.122;5.502;2022-12-10T05:39:24;-0.80;99.90
18611;DHT22;9435;52.122;5.502;2022-12-10T05:41:53;-0.80;99.90
18611;DHT22;9435;52.122;5.502;2022-12-10T05:44:20;-0.80;99.90
18611;DHT22;9435;52.122;5.502;2022-12-10T05:46:47;-0.90;99.90
18611;DHT22;9435;52.122;5.502;2022-12-10T05:49:14;-0.90;99.90
18611;DHT22;9435;52.122;5.502;2022-12-10T05:51:41;-0.80;99.90
18611;DHT22;9435;52.122;5.502;2022-12-10T05:54:09;-0.80;99.90
18611;DHT22;9435;52.122;5.502;2022-12-10T05:56:37;-0.80;99.90
18611;DHT22;9435;52.122;5.502;2022-12-10T05:59:05;-0.80;99.90
18611;DHT22;9435;52.122;5.502;2022-12-10T06:01:34;-0.80;99.90
18611;DHT22;9435;52.122;5.502;2022-12-10T06:04:03;-0.80;99.90
18611;DHT22;9435;52.122;5.502;2022-12-10T06:06:33;-0.70;99.90
18611;DHT22;9435;52.122;5.502;2022-12-10T06:09:00;-0.80;99.90
18611;DHT22;9435;52.122;5.502;2022-12-10T06:11:27;-0.80;99.90
18611;DHT22;9435;52.122;5.502;2022-12-10T06:13:55;-0.80;99.90
18611;DHT22;9435;52.122;5.502;2022-12-10T06:16:25;-0.80;99.90
18611;DHT22;9435;52.122;5.502;2022-12-10T06:18:53;-0.80;99.90
18611;DHT22;9435;52.122;5.502;2022-12-10T06:21:20;-0.80;99.90
18611;DHT22;9435;52.122;5.502;2022-12-10T06:23:48;-0.80;99.90
18611;DHT22;9435;52.122;5.502;2022-12-10T06:26:19;-0.70;99.90
18611;DHT22;9435;52.122;5.502;2022-12-10T06:28:47;-0.70;99.90
18611;DHT22;9435;52.122;5.502;2022-12-10T06:31:15;-0.70;99.90
18611;DHT22;9435;52.122;5.502;2022-12-10T06:33:44;-0.60;99.90
18611;DHT22;9435;52.122;5.502;2022-12-10T06:36:12;-0.70;99.90
18611;DHT22;9435;52.122;5.502;2022-12-10T06:38:40;-0.70;99.90
18611;DHT22;9435;52.122;5.502;2022-12-10T06:41:09;-0.80;99.90
18611;DHT22;9435;52.122;5.502;2022-12-10T06:43:37;-0.80;99.90
18611;DHT22;9435;52.122;5.502;2022-12-10T06:46:05;-0.80;99.90
18611;DHT22;9435;52.122;5.502;2022-12-10T06:48:32;-0.80;99.90
18611;DHT22;9435;52.122;5.502;2022-12-10T06:51:01;-0.80;99.90
18611;DHT22;9435;52.122;5.502;2022-12-10T06:53:28;-0.80;99.90
18611;DHT22;9435;52.122;5.502;2022-12-10T06:55:58;-0.80;99.90
18611;DHT22;9435;52.122;5.502;2022-12-10T06:58:27;-0.80;99.90
18611;DHT22;9435;52.122;5.502;2022-12-10T07:00:54;-0.90;99.90
18611;DHT22;9435;52.122;5.502;2022-12-10T07:03:21;-0.90;99.90
18611;DHT22;9435;52.122;5.502;2022-12-10T07:05:48;-0.90;99.90
18611;DHT22;9435;52.122;5.502;2022-12-10T07:08:16;-0.90;99.90
18611;DHT22;9435;52.122;5.502;2022-12-10T07:10:45;-0.90;99.90
18611;DHT22;9435;52.122;5.502;2022-12-10T07:13:12;-0.80;99.90
18611;DHT22;9435;52.122;5.502;2022-12-10T07:15:39;-0.90;99.90
18611;DHT22;9435;52.122;5.502;2022-12-10T07:18:06;-0.90;99.90
18611;DHT22;9435;52.122;5.502;2022-12-10T07:20:33;-0.80;99.90
18611;DHT22;9435;52.122;5.502;2022-12-10T07:23:00;-0.80;99.90
18611;DHT22;9435;52.122;5.502;2022-12-10T07:25:29;-0.80;99.90
18611;DHT22;9435;52.122;5.502;2022-12-10T07:27:57;-0.80;99.90
18611;DHT22;9435;52.122;5.502;2022-12-10T07:30:24;-0.80;99.90
18611;DHT22;9435;52.122;5.502;2022-12-10T07:32:51;-0.80;99.90
18611;DHT22;9435;52.122;5.502;2022-12-10T07:35:18;-0.80;99.90
18611;DHT22;9435;52.122;5.502;2022-12-10T07:37:45;-0.80;99.90
18611;DHT22;9435;52.122;5.502;2022-12-10T07:40:12;-0.80;99.90
18611;DHT22;9435;52.122;5.502;2022-12-10T07:42:40;-0.80;99.90
18611;DHT22;9435;52.122;5.502;2022-12-10T07:45:08;-0.90;99.90
18611;DHT22;9435;52.122;5.502;2022-12-10T07:47:36;-0.80;99.90
18611;DHT22;9435;52.122;5.502;2022-12-10T07:50:04;-0.80;99.90
18611;DHT22;9435;52.122;5.502;2022-12-10T07:52:31;-0.90;99.90
18611;DHT22;9435;52.122;5.502;2022-12-10T07:54:59;-0.90;99.90
18611;DHT22;9435;52.122;5.502;2022-12-10T07:57:26;-0.80;99.90
18611;DHT22;9435;52.122;5.502;2022-12-10T07:59:56;-0.80;99.90
18611;DHT22;9435;52.122;5.502;2022-12-10T08:02:23;-0.90;99.90
18611;DHT22;9435;52.122;5.502;2022-12-10T08:04:51;-0.80;99.90
18611;DHT22;9435;52.122;5.502;2022-12-10T08:07:18;-0.80;99.90
18611;DHT22;9435;52.122;5.502;2022-12-10T08:09:45;-0.80;99.90
18611;DHT22;9435;52.122;5.502;2022-12-10T08:12:12;-0.80;99.90
18611;DHT22;9435;52.122;5.502;2022-12-10T08:14:39;-0.80;99.90
18611;DHT22;9435;52.122;5.502;2022-12-10T08:17:08;-0.80;99.90
18611;DHT22;9435;52.122;5.502;2022-12-10T08:19:35;-0.80;99.90
18611;DHT22;9435;52.122;5.502;2022-12-10T08:22:02;-0.80;99.90
18611;DHT22;9435;52.122;5.502;2022-12-10T08:24:29;-0.80;99.90
18611;DHT22;9435;52.122;5.502;2022-12-10T08:26:56;-0.80;99.90
18611;DHT22;9435;52.122;5.502;2022-12-10T08:29:23;-0.80;99.90
18611;DHT22;9435;52.122;5.502;2022-12-10T08:31:50;-0.70;99.90
18611;DHT22;9435;52.122;5.502;2022-12-10T08:34:19;-0.70;99.90
18611;DHT22;9435;52.122;5.502;2022-12-10T08:36:46;-0.70;99.90
18611;DHT22;9435;52.122;5.502;2022-12-10T08:39:13;-0.70;99.90
18611;DHT22;9435;52.122;5.502;2022-12-10T08:41:42;-0.70;99.90
18611;DHT22;9435;52.122;5.502;2022-12-10T08:44:10;-0.70;99.90
18611;DHT22;9435;52.122;5.502;2022-12-10T08:46:37;-0.60;99.90
18611;DHT22;9435;52.122;5.502;2022-12-10T08:49:05;-0.60;99.90
18611;DHT22;9435;52.122;5.502;2022-12-10T08:51:35;-0.60;99.90
18611;DHT22;9435;52.122;5.502;2022-12-10T08:54:02;-0.50;99.90
18611;DHT22;9435;52.122;5.502;2022-12-10T08:56:30;-0.50;99.90
18611;DHT22;9435;52.122;5.502;2022-12-10T08:58:57;-0.50;99.90
18611;DHT22;9435;52.122;5.502;2022-12-10T09:01:24;-0.50;99.90
18611;DHT22;9435;52.122;5.502;2022-12-10T09:03:51;-0.50;99.90
18611;DHT22;9435;52.122;5.502;2022-12-10T09:06:21;-0.50;99.90
18611;DHT22;9435;52.122;5.502;2022-12-10T09:08:51;-0.50;99.90
18611;DHT22;9435;52.122;5.502;2022-12-10T09:11:21;-0.50;99.90
18611;DHT22;9435;52.122;5.502;2022-12-10T09:13:48;-0.50;99.90
18611;DHT22;9435;52.122;5.502;2022-12-10T09:16:16;-0.50;99.90
18611;DHT22;9435;52.122;5.502;2022-12-10T09:18:43;-0.50;99.90
18611;DHT22;9435;52.122;5.502;2022-12-10T09:21:12;-0.50;99.90
18611;DHT22;9435;52.122;5.502;2022-12-10T09:23:40;-0.40;99.90
18611;DHT22;9435;52.122;5.502;2022-12-10T09:26:10;-0.40;99.90
18611;DHT22;9435;52.122;5.502;2022-12-10T09:28:38;-0.40;99.90
18611;DHT22;9435;52.122;5.502;2022-12-10T09:31:06;-0.30;99.90
18611;DHT22;9435;52.122;5.502;2022-12-10T09:33:35;-0.30;99.90
18611;DHT22;9435;52.122;5.502;2022-12-10T09:36:03;-0.30;99.90
18611;DHT22;9435;52.122;5.502;2022-12-10T09:38:31;-0.30;99.90
18611;DHT22;9435;52.122;5.502;2022-12-10T09:41:01;-0.30;99.90
18611;DHT22;9435;52.122;5.502;2022-12-10T09:43:41;-0.40;99.90
18611;DHT22;9435;52.122;5.502;2022-12-10T09:46:20;-0.40;99.90
18611;DHT22;9435;52.122;5.502;2022-12-10T09:49:00;-0.40;99.90
18611;DHT22;9435;52.122;5.502;2022-12-10T09:51:30;-0.30;99.90
18611;DHT22;9435;52.122;5.502;2022-12-10T09:53:59;-0.30;99.90
18611;DHT22;9435;52.122;5.502;2022-12-10T09:56:30;-0.30;99.90
18611;DHT22;9435;52.122;5.502;2022-12-10T09:59:03;-0.30;99.90
18611;DHT22;9435;52.122;5.502;2022-12-10T10:01:33;-0.30;99.90
18611;DHT22;9435;52.122;5.502;2022-12-10T10:04:03;-0.30;99.90
18611;DHT22;9435;52.122;5.502;2022-12-10T10:06:31;-0.40;99.90
18611;DHT22;9435;52.122;5.502;2022-12-10T10:09:02;-0.40;99.90
18611;DHT22;9435;52.122;5.502;2022-12-10T10:11:31;-0.30;99.90
18611;DHT22;9435;52.122;5.502;2022-12-10T10:14:04;-0.30;99.90
18611;DHT22;9435;52.122;5.502;2022-12-10T10:16:35;-0.20;99.90
18611;DHT22;9435;52.122;5.502;2022-12-10T10:19:05;-0.30;99.90
18611;DHT22;9435;52.122;5.502;2022-12-10T10:21:36;-0.20;99.90
18611;DHT22;9435;52.122;5.502;2022-12-10T10:24:06;-0.30;99.90
18611;DHT22;9435;52.122;5.502;2022-12-10T10:26:35;-0.30;99.90
18611;DHT22;9435;52.122;5.502;2022-12-10T10:29:05;-0.20;99.90
18611;DHT22;9435;52.122;5.502;2022-12-10T10:31:35;-0.30;99.90
18611;DHT22;9435;52.122;5.502;2022-12-10T10:34:06;-0.20;99.90
18611;DHT22;9435;52.122;5.502;2022-12-10T10:36:39;-0.20;99.90
18611;DHT22;9435;52.122;5.502;2022-12-10T10:39:11;-0.30;99.90
18611;DHT22;9435;52.122;5.502;2022-12-10T10:41:44;-0.30;99.90
18611;DHT22;9435;52.122;5.502;2022-12-10T10:44:17;-0.30;99.90
18611;DHT22;9435;52.122;5.502;2022-12-10T10:46:47;-0.20;99.90
18611;DHT22;9435;52.122;5.502;2022-12-10T10:49:26;-0.20;99.90
18611;DHT22;9435;52.122;5.502;2022-12-10T10:52:00;-0.20;99.90
18611;DHT22;9435;52.122;5.502;2022-12-10T10:54:33;-0.20;99.90
18611;DHT22;9435;52.122;5.502;2022-12-10T10:57:03;-0.10;99.90
18611;DHT22;9435;52.122;5.502;2022-12-10T10:59:34;-0.10;99.90
18611;DHT22;9435;52.122;5.502;2022-12-10T11:02:14;-0.10;99.90
18611;DHT22;9435;52.122;5.502;2022-12-10T11:04:46;-0.10;99.90
18611;DHT22;9435;52.122;5.502;2022-12-10T11:07:20;-0.10;99.90
18611;DHT22;9435;52.122;5.502;2022-12-10T11:09:49;-0.10;99.90
18611;DHT22;9435;52.122;5.502;2022-12-10T11:12:29;-0.10;99.90
18611;DHT22;9435;52.122;5.502;2022-12-10T11:14:58;-0.10;99.90
18611;DHT22;9435;52.122;5.502;2022-12-10T11:17:27;-0.10;99.90
18611;DHT22;9435;52.122;5.502;2022-12-10T11:19:57;-0.10;99.90
18611;DHT22;9435;52.122;5.502;2022-12-10T11:22:27;-0.20;99.90
18611;DHT22;9435;52.122;5.502;2022-12-10T11:24:55;-0.20;99.90
18611;DHT22;9435;52.122;5.502;2022-12-10T11:27:37;-0.10;99.90
18611;DHT22;9435;52.122;5.502;2022-12-10T11:30:10;-0.10;99.90
18611;DHT22;9435;52.122;5.502;2022-12-10T11:32:59;-0.10;99.90
18611;DHT22;9435;52.122;5.502;2022-12-10T11:35:40;-0.10;99.90
18611;DHT22;9435;52.122;5.502;2022-12-10T11:38:19;0.00;99.90
18611;DHT22;9435;52.122;5.502;2022-12-10T11:40:50;-0.10;99.90
18611;DHT22;9435;52.122;5.502;2022-12-10T11:43:42;-0.10;99.90
18611;DHT22;9435;52.122;5.502;2022-12-10T11:46:34;-0.10;99.90
18611;DHT22;9435;52.122;5.502;2022-12-10T11:49:14;0.00;99.90
18611;DHT22;9435;52.122;5.502;2022-12-10T11:51:51;-0.10;99.90
18611;DHT22;9435;52.122;5.502;2022-12-10T11:54:44;-0.20;99.90
18611;DHT22;9435;52.122;5.502;2022-12-10T11:57:22;-0.20;99.90
18611;DHT22;9435;52.122;5.502;2022-12-10T11:59:57;-0.20;99.90
18611;DHT22;9435;52.122;5.502;2022-12-10T12:05:57;-0.20;99.90
18611;DHT22;9435;52.122;5.502;2022-12-10T12:08:34;-0.10;99.90
18611;DHT22;9435;52.122;5.502;2022-12-10T12:11:17;-0.20;99.90
18611;DHT22;9435;52.122;5.502;2022-12-10T12:13:55;-0.10;99.90
18611;DHT22;9435;52.122;5.502;2022-12-10T12:16:27;-0.10;99.90
18611;DHT22;9435;52.122;5.502;2022-12-10T12:19:02;-0.10;99.90
18611;DHT22;9435;52.122;5.502;2022-12-10T12:21:30;0.00;99.90
18611;DHT22;9435;52.122;5.502;2022-12-10T12:24:01;0.00;99.90
18611;DHT22;9435;52.122;5.502;2022-12-10T12:26:32;0.00;99.90
18611;DHT22;9435;52.122;5.502;2022-12-10T12:29:10;0.10;99.90
18611;DHT22;9435;52.122;5.502;2022-12-10T12:31:40;0.10;99.90
18611;DHT22;9435;52.122;5.502;2022-12-10T12:34:18;0.00;99.90
18611;DHT22;9435;52.122;5.502;2022-12-10T12:36:48;0.10;99.90
18611;DHT22;9435;52.122;5.502;2022-12-10T12:39:22;0.00;99.90
18611;DHT22;9435;52.122;5.502;2022-12-10T12:41:55;0.10;99.90
18611;DHT22;9435;52.122;5.502;2022-12-10T12:44:29;0.00;99.90
18611;DHT22;9435;52.122;5.502;2022-12-10T12:47:10;0.00;99.90
18611;DHT22;9435;52.122;5.502;2022-12-10T12:49:44;0.00;99.90
18611;DHT22;9435;52.122;5.502;2022-12-10T12:52:23;0.00;99.90
18611;DHT22;9435;52.122;5.502;2022-12-10T12:54:55;0.00;99.90
18611;DHT22;9435;52.122;5.502;2022-12-10T12:57:30;0.00;99.90
18611;DHT22;9435;52.122;5.502;2022-12-10T13:00:03;0.00;99.90
18611;DHT22;9435;52.122;5.502;2022-12-10T13:02:44;0.00;99.90
18611;DHT22;9435;52.122;5.502;2022-12-10T13:05:18;0.00;99.90
18611;DHT22;9435;52.122;5.502;2022-12-10T13:10:50;0.10;99.90
18611;DHT22;9435;52.122;5.502;2022-12-10T13:13:23;0.10;99.90
18611;DHT22;9435;52.122;5.502;2022-12-10T13:15:51;0.00;99.90
18611;DHT22;9435;52.122;5.502;2022-12-10T13:18:33;0.00;99.90
18611;DHT22;9435;52.122;5.502;2022-12-10T13:21:28;0.00;99.90
18611;DHT22;9435;52.122;5.502;2022-12-10T13:24:07;0.00;99.90
18611;DHT22;9435;52.122;5.502;2022-12-10T13:26:35;0.00;99.90
18611;DHT22;9435;52.122;5.502;2022-12-10T13:29:22;0.10;99.90
18611;DHT22;9435;52.122;5.502;2022-12-10T13:31:55;0.10;99.90
18611;DHT22;9435;52.122;5.502;2022-12-10T13:34:41;0.10;99.90
18611;DHT22;9435;52.122;5.502;2022-12-10T13:37:27;0.00;99.90
18611;DHT22;9435;52.122;5.502;2022-12-10T13:40:09;-0.10;99.90
18611;DHT22;9435;52.122;5.502;2022-12-10T13:42:42;0.00;99.90
18611;DHT22;9435;52.122;5.502;2022-12-10T13:45:33;-0.10;99.90
18611;DHT22;9435;52.122;5.502;2022-12-10T13:48:31;-0.10;99.90
18611;DHT22;9435;52.122;5.502;2022-12-10T13:51:11;-0.10;99.90
18611;DHT22;9435;52.122;5.502;2022-12-10T13:53:50;-0.10;99.90
18611;DHT22;9435;52.122;5.502;2022-12-10T13:56:24;0.00;99.90
18611;DHT22;9435;52.122;5.502;2022-12-10T13:59:03;0.00;99.90
18611;DHT22;9435;52.122;5.502;2022-12-10T14:01:39;0.00;99.90
18611;DHT22;9435;52.122;5.502;2022-12-10T14:04:24;0.10;99.90
18611;DHT22;9435;52.122;5.502;2022-12-10T14:06:54;0.10;99.90
18611;DHT22;9435;52.122;5.502;2022-12-10T14:09:26;0.10;99.90
18611;DHT22;9435;52.122;5.502;2022-12-10T14:11:57;0.10;99.90
18611;DHT22;9435;52.122;5.502;2022-12-10T14:14:29;0.10;99.90
18611;DHT22;9435;52.122;5.502;2022-12-10T14:17:00;0.10;99.90
18611;DHT22;9435;52.122;5.502;2022-12-10T14:19:28;0.00;99.90
18611;DHT22;9435;52.122;5.502;2022-12-10T14:21:56;0.00;99.90
18611;DHT22;9435;52.122;5.502;2022-12-10T14:24:31;-0.10;99.90
18611;DHT22;9435;52.122;5.502;2022-12-10T14:27:01;-0.10;99.90
18611;DHT22;9435;52.122;5.502;2022-12-10T14:29:29;-0.10;99.90
18611;DHT22;9435;52.122;5.502;2022-12-10T14:31:56;0.00;99.90
18611;DHT22;9435;52.122;5.502;2022-12-10T14:34:27;0.00;99.90
18611;DHT22;9435;52.122;5.502;2022-12-10T14:36:58;0.00;99.90
18611;DHT22;9435;52.122;5.502;2022-12-10T14:39:31;-0.10;99.90
18611;DHT22;9435;52.122;5.502;2022-12-10T14:42:00;-0.10;99.90
18611;DHT22;9435;52.122;5.502;2022-12-10T14:44:29;-0.10;99.90
18611;DHT22;9435;52.122;5.502;2022-12-10T14:47:05;0.00;99.90
18611;DHT22;9435;52.122;5.502;2022-12-10T14:49:38;0.00;99.90
18611;DHT22;9435;52.122;5.502;2022-12-10T14:52:10;0.00;99.90
18611;DHT22;9435;52.122;5.502;2022-12-10T14:54:39;0.00;99.90
18611;DHT22;9435;52.122;5.502;2022-12-10T14:57:10;0.10;99.90
18611;DHT22;9435;52.122;5.502;2022-12-10T14:59:42;0.00;99.90
18611;DHT22;9435;52.122;5.502;2022-12-10T15:02:19;0.00;99.90
18611;DHT22;9435;52.122;5.502;2022-12-10T15:04:49;0.00;99.90
18611;DHT22;9435;52.122;5.502;2022-12-10T15:07:20;0.00;99.90
18611;DHT22;9435;52.122;5.502;2022-12-10T15:09:50;0.00;99.90
18611;DHT22;9435;52.122;5.502;2022-12-10T15:12:32;0.00;99.90
18611;DHT22;9435;52.122;5.502;2022-12-10T15:15:11;0.00;99.90
18611;DHT22;9435;52.122;5.502;2022-12-10T15:17:41;0.10;99.90
18611;DHT22;9435;52.122;5.502;2022-12-10T15:20:20;0.10;99.90
18611;DHT22;9435;52.122;5.502;2022-12-10T15:22:48;0.10;99.90
18611;DHT22;9435;52.122;5.502;2022-12-10T15:25:23;0.10;99.90
18611;DHT22;9435;52.122;5.502;2022-12-10T15:27:56;0.10;99.90
18611;DHT22;9435;52.122;5.502;2022-12-10T15:30:33;0.10;99.90
18611;DHT22;9435;52.122;5.502;2022-12-10T15:33:00;0.10;99.90
18611;DHT22;9435;52.122;5.502;2022-12-10T15:35:28;0.10;99.90
18611;DHT22;9435;52.122;5.502;2022-12-10T15:37:56;0.10;99.90
18611;DHT22;9435;52.122;5.502;2022-12-10T15:40:29;0.10;99.90
18611;DHT22;9435;52.122;5.502;2022-12-10T15:43:11;0.10;99.90
18611;DHT22;9435;52.122;5.502;2022-12-10T15:45:39;0.10;99.90
18611;DHT22;9435;52.122;5.502;2022-12-10T15:48:08;0.10;99.90
18611;DHT22;9435;52.122;5.502;2022-12-10T15:50:36;0.10;99.90
18611;DHT22;9435;52.122;5.502;2022-12-10T15:53:04;0.10;99.90
18611;DHT22;9435;52.122;5.502;2022-12-10T15:55:32;0.10;99.90
18611;DHT22;9435;52.122;5.502;2022-12-10T15:58:00;0.10;99.90
18611;DHT22;9435;52.122;5.502;2022-12-10T16:00:27;0.10;99.90
18611;DHT22;9435;52.122;5.502;2022-12-10T16:02:56;0.10;99.90
18611;DHT22;9435;52.122;5.502;2022-12-10T16:05:25;0.20;99.90
18611;DHT22;9435;52.122;5.502;2022-12-10T16:07:56;0.20;99.90
18611;DHT22;9435;52.122;5.502;2022-12-10T16:10:26;0.20;99.90
18611;DHT22;9435;52.122;5.502;2022-12-10T16:12:59;0.30;99.90
18611;DHT22;9435;52.122;5.502;2022-12-10T16:15:29;0.30;99.90
18611;DHT22;9435;52.122;5.502;2022-12-10T16:17:57;0.30;99.90
18611;DHT22;9435;52.122;5.502;2022-12-10T16:20:26;0.30;99.90
18611;DHT22;9435;52.122;5.502;2022-12-10T16:22:54;0.30;99.90